sensor_id;sensor_type;location;lat;lon;timestamp;pressure;altitude;pressure_sealevel;temperature;humidity
73016;BME280;61893;50.074;14.440;2022-08-20T00:01:43;98100.19;;;18.93;88.02
73016;BME280;61893;50.074;14.440;2022-08-20T00:04:13;98091.28;;;18.92;87.43
73016;BME280;61893;50.074;14.440;2022-08-20T00:06:39;98108.59;;;19.03;87.70
73016;BME280;61893;50.074;14.440;2022-08-20T00:09:04;98112.31;;;19.08;87.38
73016;BME280;61893;50.074;14.440;2022-08-20T00:11:34;98111.72;;;19.06;88.04
73016;BME280;61893;50.074;14.440;2022-08-20T00:14:03;98108.41;;;19.04;87.90
73016;BME280;61893;50.074;14.440;2022-08-20T00:16:34;98106.53;;;19.05;87.40
73016;BME280;61893;50.074;14.440;2022-08-20T00:19:09;98109.66;;;19.02;87.46
73016;BME280;61893;50.074;14.440;2022-08-20T00:21:38;98108.84;;;19.01;87.38
73016;BME280;61893;50.074;14.440;2022-08-20T00:24:05;98108.44;;;18.98;87.60
73016;BME280;61893;50.074;14.440;2022-08-20T00:26:33;98103.31;;;18.89;87.54
73016;BME280;61893;50.074;14.440;2022-08-20T00:28:59;98114.09;;;18.89;88.12
73016;BME280;61893;50.074;14.440;2022-08-20T00:31:55;98124.06;;;18.89;87.39
73016;BME280;61893;50.074;14.440;2022-08-20T00:34:23;98121.78;;;18.86;87.59
73016;BME280;61893;50.074;14.440;2022-08-20T00:36:49;98111.00;;;18.86;87.93
73016;BME280;61893;50.074;14.440;2022-08-20T00:39:14;98108.44;;;18.98;87.73
73016;BME280;61893;50.074;14.440;2022-08-20T00:41:50;98118.25;;;18.85;87.95
73016;BME280;61893;50.074;14.440;2022-08-20T00:44:28;98101.91;;;18.80;88.05
73016;BME280;61893;50.074;14.440;2022-08-20T00:46:55;98113.53;;;18.81;88.08
73016;BME280;61893;50.074;14.440;2022-08-20T00:49:24;98102.50;;;18.89;88.33
73016;BME280;61893;50.074;14.440;2022-08-20T00:52:12;98102.31;;;18.84;88.04
73016;BME280;61893;50.074;14.440;2022-08-20T00:54:47;98101.06;;;18.80;88.16
73016;BME280;61893;50.074;14.440;2022-08-20T00:57:32;98102.56;;;18.69;89.04
73016;BME280;61893;50.074;14.440;2022-08-20T01:00:01;98104.63;;;18.74;88.78
73016;BME280;61893;50.074;14.440;2022-08-20T01:02:30;98111.03;;;18.73;88.54
73016;BME280;61893;50.074;14.440;2022-08-20T01:04:56;98108.91;;;18.88;88.49
73016;BME280;61893;50.074;14.440;2022-08-20T01:07:55;98109.16;;;18.80;88.45
73016;BME280;61893;50.074;14.440;2022-08-20T01:10:46;98103.75;;;18.86;88.40
73016;BME280;61893;50.074;14.440;2022-08-20T01:13:20;98094.03;;;18.72;88.60
73016;BME280;61893;50.074;14.440;2022-08-20T01:15:50;98091.56;;;18.77;88.38
73016;BME280;61893;50.074;14.440;2022-08-20T01:18:23;98102.06;;;18.85;88.13
73016;BME280;61893;50.074;14.440;2022-08-20T01:21:01;98107.13;;;18.75;88.25
73016;BME280;61893;50.074;14.440;2022-08-20T01:26:18;98090.94;;;18.75;88.21
73016;BME280;61893;50.074;14.440;2022-08-20T01:28:52;98093.44;;;18.70;88.14
73016;BME280;61893;50.074;14.440;2022-08-20T01:31:26;98094.69;;;18.67;88.85
73016;BME280;61893;50.074;14.440;2022-08-20T01:33:53;98090.31;;;18.73;87.96
73016;BME280;61893;50.074;14.440;2022-08-20T01:36:28;98093.84;;;18.67;88.21
73016;BME280;61893;50.074;14.440;2022-08-20T01:39:13;98089.91;;;18.76;88.78
73016;BME280;61893;50.074;14.440;2022-08-20T01:42:09;98097.97;;;18.83;88.29
73016;BME280;61893;50.074;14.440;2022-08-20T01:44:52;98102.75;;;18.67;88.53
73016;BME280;61893;50.074;14.440;2022-08-20T01:47:27;98101.50;;;18.70;88.14
73016;BME280;61893;50.074;14.440;2022-08-20T01:49:57;98099.44;;;18.72;88.24
73016;BME280;61893;50.074;14.440;2022-08-20T01:52:28;98098.81;;;18.70;88.11
73016;BME280;61893;50.074;14.440;2022-08-20T01:54:55;98093.22;;;18.72;87.98
73016;BME280;61893;50.074;14.440;2022-08-20T01:57:25;98094.84;;;18.79;88.44
73016;BME280;61893;50.074;14.440;2022-08-20T01:59:52;98097.34;;;18.81;87.71
73016;BME280;61893;50.074;14.440;2022-08-20T02:02:18;98099.25;;;18.74;87.89
73016;BME280;61893;50.074;14.440;2022-08-20T02:04:44;98088.47;;;18.74;88.25
73016;BME280;61893;50.074;14.440;2022-08-20T02:07:17;98080.13;;;18.82;87.64
73016;BME280;61893;50.074;14.440;2022-08-20T02:09:43;98084.09;;;18.73;87.97
73016;BME280;61893;50.074;14.440;2022-08-20T02:12:11;98084.31;;;18.78;87.64
73016;BME280;61893;50.074;14.440;2022-08-20T02:14:44;98090.09;;;18.81;87.58
73016;BME280;61893;50.074;14.440;2022-08-20T02:17:12;98092.56;;;18.83;88.12
73016;BME280;61893;50.074;14.440;2022-08-20T02:19:45;98095.44;;;18.88;87.20
73016;BME280;61893;50.074;14.440;2022-08-20T02:24:51;98092.97;;;18.80;87.73
73016;BME280;61893;50.074;14.440;2022-08-20T02:27:19;98092.97;;;18.86;87.38
73016;BME280;61893;50.074;14.440;2022-08-20T02:29:47;98099.19;;;18.87;87.69
73016;BME280;61893;50.074;14.440;2022-08-20T02:32:30;98099.88;;;18.69;87.60
73016;BME280;61893;50.074;14.440;2022-08-20T02:34:56;98102.13;;;18.79;87.60
73016;BME280;61893;50.074;14.440;2022-08-20T02:37:22;98101.47;;;18.83;87.50
73016;BME280;61893;50.074;14.440;2022-08-20T02:40:11;98101.44;;;18.90;87.32
73016;BME280;61893;50.074;14.440;2022-08-20T02:42:38;98110.59;;;18.82;86.93
73016;BME280;61893;50.074;14.440;2022-08-20T02:45:10;98099.00;;;18.82;87.62
73016;BME280;61893;50.074;14.440;2022-08-20T02:47:36;98095.31;;;18.69;87.59
73016;BME280;61893;50.074;14.440;2022-08-20T02:50:09;98091.72;;;18.82;87.85
73016;BME280;61893;50.074;14.440;2022-08-20T02:52:41;98096.09;;;18.83;87.05
73016;BME280;61893;50.074;14.440;2022-08-20T02:55:08;98096.94;;;18.71;87.78
73016;BME280;61893;50.074;14.440;2022-08-20T02:57:37;98098.81;;;18.70;87.83
73016;BME280;61893;50.074;14.440;2022-08-20T03:00:08;98096.09;;;18.83;86.80
73016;BME280;61893;50.074;14.440;2022-08-20T03:02:35;98091.47;;;18.90;87.03
73016;BME280;61893;50.074;14.440;2022-08-20T03:05:03;98095.41;;;18.95;86.74
73016;BME280;61893;50.074;14.440;2022-08-20T03:07:29;98090.50;;;18.78;86.85
73016;BME280;61893;50.074;14.440;2022-08-20T03:10:00;98087.81;;;18.78;87.48
73016;BME280;61893;50.074;14.440;2022-08-20T03:12:26;98086.19;;;18.77;87.49
73016;BME280;61893;50.074;14.440;2022-08-20T03:14:51;98093.66;;;18.68;87.86
73016;BME280;61893;50.074;14.440;2022-08-20T03:17:17;98082.44;;;18.72;87.77
73016;BME280;61893;50.074;14.440;2022-08-20T03:19:42;98080.81;;;18.64;87.84
73016;BME280;61893;50.074;14.440;2022-08-20T03:22:08;98070.22;;;18.69;87.91
73016;BME280;61893;50.074;14.440;2022-08-20T03:24:33;98073.09;;;18.74;87.60
73016;BME280;61893;50.074;14.440;2022-08-20T03:26:59;98071.47;;;18.66;88.22
73016;BME280;61893;50.074;14.440;2022-08-20T03:29:25;98067.91;;;18.79;87.51
73016;BME280;61893;50.074;14.440;2022-08-20T03:31:50;98065.28;;;18.59;88.25
73016;BME280;61893;50.074;14.440;2022-08-20T03:34:16;98076.25;;;18.64;87.79
73016;BME280;61893;50.074;14.440;2022-08-20T03:36:41;98069.22;;;18.57;88.31
73016;BME280;61893;50.074;14.440;2022-08-20T03:39:08;98075.03;;;18.60;88.51
73016;BME280;61893;50.074;14.440;2022-08-20T03:41:37;98069.81;;;18.65;88.50
73016;BME280;61893;50.074;14.440;2022-08-20T03:44:04;98079.34;;;18.68;88.39
73016;BME280;61893;50.074;14.440;2022-08-20T03:46:31;98078.75;;;18.59;88.10
73016;BME280;61893;50.074;14.440;2022-08-20T03:49:00;98081.69;;;18.58;87.84
73016;BME280;61893;50.074;14.440;2022-08-20T03:51:29;98072.72;;;18.64;87.98
73016;BME280;61893;50.074;14.440;2022-08-20T03:53:55;98080.81;;;18.64;88.05
73016;BME280;61893;50.074;14.440;2022-08-20T03:56:25;98072.97;;;18.56;88.43
73016;BME280;61893;50.074;14.440;2022-08-20T03:58:52;98081.91;;;18.50;88.35
73016;BME280;61893;50.074;14.440;2022-08-20T04:01:17;98079.19;;;18.63;87.88
73016;BME280;61893;50.074;14.440;2022-08-20T04:03:43;98080.47;;;18.47;88.53
73016;BME280;61893;50.074;14.440;2022-08-20T04:06:13;98081.50;;;18.53;88.80
73016;BME280;61893;50.074;14.440;2022-08-20T04:08:41;98086.63;;;18.61;88.53
73016;BME280;61893;50.074;14.440;2022-08-20T04:11:07;98094.28;;;18.64;88.04
73016;BME280;61893;50.074;14.440;2022-08-20T04:13:34;98095.13;;;18.64;87.54
73016;BME280;61893;50.074;14.440;2022-08-20T04:16:05;98090.34;;;18.60;87.98
73016;BME280;61893;50.074;14.440;2022-08-20T04:18:35;98095.59;;;18.55;87.47
73016;BME280;61893;50.074;14.440;2022-08-20T04:21:02;98094.53;;;18.56;87.94
73016;BME280;61893;50.074;14.440;2022-08-20T04:23:28;98098.88;;;18.57;88.04
73016;BME280;61893;50.074;14.440;2022-08-20T04:25:58;98103.25;;;18.58;87.51
73016;BME280;61893;50.074;14.440;2022-08-20T04:28:25;98106.28;;;18.68;87.28
73016;BME280;61893;50.074;14.440;2022-08-20T04:31:01;98104.25;;;18.63;87.29
73016;BME280;61893;50.074;14.440;2022-08-20T04:33:28;98107.34;;;18.67;87.22
73016;BME280;61893;50.074;14.440;2022-08-20T04:35:57;98109.06;;;18.55;87.36
73016;BME280;61893;50.074;14.440;2022-08-20T04:38:30;98114.69;;;18.46;87.96
73016;BME280;61893;50.074;14.440;2022-08-20T04:41:13;98118.38;;;18.52;87.27
73016;BME280;61893;50.074;14.440;2022-08-20T04:43:38;98106.78;;;18.52;87.78
73016;BME280;61893;50.074;14.440;2022-08-20T04:46:08;98122.53;;;18.48;87.89
73016;BME280;61893;50.074;14.440;2022-08-20T04:48:34;98119.84;;;18.55;88.11
73016;BME280;61893;50.074;14.440;2022-08-20T04:51:03;98122.09;;;18.51;87.99
73016;BME280;61893;50.074;14.440;2022-08-20T04:53:29;98125.38;;;18.60;87.61
73016;BME280;61893;50.074;14.440;2022-08-20T04:55:58;98126.66;;;18.51;87.78
73016;BME280;61893;50.074;14.440;2022-08-20T04:58:30;98126.03;;;18.55;87.68
73016;BME280;61893;50.074;14.440;2022-08-20T05:01:17;98123.97;;;18.57;87.79
73016;BME280;61893;50.074;14.440;2022-08-20T05:03:45;98132.47;;;18.54;87.85
73016;BME280;61893;50.074;14.440;2022-08-20T05:06:15;98133.72;;;18.52;88.04
73016;BME280;61893;50.074;14.440;2022-08-20T05:09:13;98130.19;;;18.58;88.01
73016;BME280;61893;50.074;14.440;2022-08-20T05:11:39;98134.47;;;18.65;87.25
73016;BME280;61893;50.074;14.440;2022-08-20T05:14:07;98141.81;;;18.45;87.75
73016;BME280;61893;50.074;14.440;2022-08-20T05:16:32;98142.25;;;18.49;87.30
73016;BME280;61893;50.074;14.440;2022-08-20T05:19:13;98141.63;;;18.46;87.47
73016;BME280;61893;50.074;14.440;2022-08-20T05:21:39;98142.63;;;18.45;87.64
73016;BME280;61893;50.074;14.440;2022-08-20T05:24:08;98143.06;;;18.42;88.09
73016;BME280;61893;50.074;14.440;2022-08-20T05:26:36;98139.34;;;18.43;87.68
73016;BME280;61893;50.074;14.440;2022-08-20T05:29:14;98135.44;;;18.33;88.01
73016;BME280;61893;50.074;14.440;2022-08-20T05:31:40;98124.06;;;18.24;87.91
73016;BME280;61893;50.074;14.440;2022-08-20T05:34:09;98134.63;;;18.26;87.49
73016;BME280;61893;50.074;14.440;2022-08-20T05:36:37;98134.44;;;18.14;88.09
73016;BME280;61893;50.074;14.440;2022-08-20T05:39:07;98137.13;;;18.14;88.02
73016;BME280;61893;50.074;14.440;2022-08-20T05:41:33;98133.63;;;18.20;88.09
73016;BME280;61893;50.074;14.440;2022-08-20T05:44:09;98132.94;;;18.31;87.64
73016;BME280;61893;50.074;14.440;2022-08-20T05:46:48;98123.84;;;18.26;87.66
73016;BME280;61893;50.074;14.440;2022-08-20T05:49:18;98136.97;;;18.09;88.72
73016;BME280;61893;50.074;14.440;2022-08-20T05:51:46;98136.75;;;18.04;88.34
73016;BME280;61893;50.074;14.440;2022-08-20T05:54:14;98132.59;;;18.14;88.42
73016;BME280;61893;50.074;14.440;2022-08-20T05:56:42;98152.91;;;17.90;88.33
73016;BME280;61893;50.074;14.440;2022-08-20T05:59:17;98150.41;;;18.09;88.30
73016;BME280;61893;50.074;14.440;2022-08-20T06:01:43;98152.91;;;17.90;88.07
73016;BME280;61893;50.074;14.440;2022-08-20T06:04:09;98147.16;;;17.80;88.75
73016;BME280;61893;50.074;14.440;2022-08-20T06:07:00;98155.81;;;17.82;88.44
73016;BME280;61893;50.074;14.440;2022-08-20T06:09:32;98156.25;;;17.86;88.88
73016;BME280;61893;50.074;14.440;2022-08-20T06:12:01;98155.19;;;17.87;88.71
73016;BME280;61893;50.074;14.440;2022-08-20T06:14:28;98157.91;;;17.87;88.72
73016;BME280;61893;50.074;14.440;2022-08-20T06:17:10;98155.59;;;17.77;89.05
73016;BME280;61893;50.074;14.440;2022-08-20T06:19:37;98159.13;;;17.84;88.83
73016;BME280;61893;50.074;14.440;2022-08-20T06:22:18;98160.34;;;17.68;88.86
73016;BME280;61893;50.074;14.440;2022-08-20T06:24:44;98166.19;;;17.78;88.71
73016;BME280;61893;50.074;14.440;2022-08-20T06:27:13;98168.22;;;17.76;88.81
73016;BME280;61893;50.074;14.440;2022-08-20T06:29:39;98162.00;;;17.76;89.37
73016;BME280;61893;50.074;14.440;2022-08-20T06:32:08;98163.03;;;17.75;89.16
73016;BME280;61893;50.074;14.440;2022-08-20T06:34:46;98164.13;;;17.81;88.74
73016;BME280;61893;50.074;14.440;2022-08-20T06:37:14;98169.06;;;18.04;87.88
73016;BME280;61893;50.074;14.440;2022-08-20T06:39:41;98167.22;;;17.84;88.53
73016;BME280;61893;50.074;14.440;2022-08-20T06:42:09;98167.63;;;17.81;88.17
73016;BME280;61893;50.074;14.440;2022-08-20T06:44:41;98169.88;;;17.91;88.42
73016;BME280;61893;50.074;14.440;2022-08-20T06:47:08;98177.78;;;17.86;87.99
73016;BME280;61893;50.074;14.440;2022-08-20T06:49:39;98177.56;;;17.87;87.53
73016;BME280;61893;50.074;14.440;2022-08-20T06:52:12;98188.94;;;17.96;87.69
73016;BME280;61893;50.074;14.440;2022-08-20T06:54:58;98188.91;;;17.76;87.75
73016;BME280;61893;50.074;14.440;2022-08-20T06:57:24;98191.84;;;17.81;87.99
73016;BME280;61893;50.074;14.440;2022-08-20T06:59:53;98183.94;;;17.73;87.94
73016;BME280;61893;50.074;14.440;2022-08-20T07:02:20;98180.66;;;17.84;87.32
73016;BME280;61893;50.074;14.440;2022-08-20T07:04:54;98191.41;;;17.91;86.83
73016;BME280;61893;50.074;14.440;2022-08-20T07:07:25;98203.44;;;17.82;87.37
73016;BME280;61893;50.074;14.440;2022-08-20T07:10:07;98195.78;;;17.92;86.51
73016;BME280;61893;50.074;14.440;2022-08-20T07:12:33;98203.41;;;17.88;86.59
73016;BME280;61893;50.074;14.440;2022-08-20T07:15:09;98204.03;;;17.77;86.57
73016;BME280;61893;50.074;14.440;2022-08-20T07:17:35;98196.59;;;17.92;86.64
73016;BME280;61893;50.074;14.440;2022-08-20T07:20:12;98203.84;;;17.92;86.73
73016;BME280;61893;50.074;14.440;2022-08-20T07:22:38;98210.06;;;17.86;86.39
73016;BME280;61893;50.074;14.440;2022-08-20T07:25:06;98209.63;;;18.02;86.33
73016;BME280;61893;50.074;14.440;2022-08-20T07:27:35;98208.63;;;18.03;86.70
73016;BME280;61893;50.074;14.440;2022-08-20T07:30:06;98214.41;;;18.07;85.75
73016;BME280;61893;50.074;14.440;2022-08-20T07:32:54;98220.41;;;18.15;85.44
73016;BME280;61893;50.074;14.440;2022-08-20T07:35:25;98227.03;;;18.13;85.45
73016;BME280;61893;50.074;14.440;2022-08-20T07:37:52;98218.34;;;17.84;85.22
73016;BME280;61893;50.074;14.440;2022-08-20T07:40:30;98228.69;;;18.00;85.20
73016;BME280;61893;50.074;14.440;2022-08-20T07:43:12;98233.25;;;17.87;85.59
73016;BME280;61893;50.074;14.440;2022-08-20T07:45:51;98221.47;;;17.94;84.83
73016;BME280;61893;50.074;14.440;2022-08-20T07:48:24;98222.69;;;17.98;85.68
73016;BME280;61893;50.074;14.440;2022-08-20T07:50:56;98232.81;;;17.96;85.53
73016;BME280;61893;50.074;14.440;2022-08-20T07:53:24;98237.41;;;17.89;86.35
73016;BME280;61893;50.074;14.440;2022-08-20T07:55:50;98234.91;;;17.94;86.21
73016;BME280;61893;50.074;14.440;2022-08-20T07:58:20;98227.44;;;17.96;86.23
73016;BME280;61893;50.074;14.440;2022-08-20T08:00:58;98234.28;;;17.92;86.20
73016;BME280;61893;50.074;14.440;2022-08-20T08:03:26;98236.56;;;17.95;86.46
73016;BME280;61893;50.074;14.440;2022-08-20T08:06:08;98243.16;;;17.79;86.38
73016;BME280;61893;50.074;14.440;2022-08-20T08:08:49;98238.84;;;17.92;86.58
73016;BME280;61893;50.074;14.440;2022-08-20T08:11:15;98239.88;;;17.84;87.02
73016;BME280;61893;50.074;14.440;2022-08-20T08:13:44;98238.38;;;17.75;86.58
73016;BME280;61893;50.074;14.440;2022-08-20T08:16:11;98244.41;;;17.77;87.62
73016;BME280;61893;50.074;14.440;2022-08-20T08:18:46;98244.63;;;17.82;87.69
73016;BME280;61893;50.074;14.440;2022-08-20T08:21:23;98249.41;;;17.93;87.67
73016;BME280;61893;50.074;14.440;2022-08-20T08:23:49;98259.75;;;17.96;87.39
73016;BME280;61893;50.074;14.440;2022-08-20T08:26:15;98259.13;;;17.81;86.92
73016;BME280;61893;50.074;14.440;2022-08-20T08:28:42;98259.75;;;17.83;86.51
73016;BME280;61893;50.074;14.440;2022-08-20T08:31:34;98264.63;;;17.60;85.83
73016;BME280;61893;50.074;14.440;2022-08-20T08:34:10;98276.22;;;17.53;85.10
73016;BME280;61893;50.074;14.440;2022-08-20T08:36:55;98278.06;;;17.46;85.97
73016;BME280;61893;50.074;14.440;2022-08-20T08:39:32;98273.34;;;17.55;85.40
73016;BME280;61893;50.074;14.440;2022-08-20T08:45:14;98273.97;;;17.64;86.37
73016;BME280;61893;50.074;14.440;2022-08-20T08:48:45;98278.13;;;17.73;86.18
73016;BME280;61893;50.074;14.440;2022-08-20T08:51:44;98281.81;;;17.59;85.36
73016;BME280;61893;50.074;14.440;2022-08-20T08:54:59;98293.16;;;17.54;84.90
73016;BME280;61893;50.074;14.440;2022-08-20T08:57:28;98283.63;;;17.45;85.31
73016;BME280;61893;50.074;14.440;2022-08-20T09:00:10;98286.94;;;17.40;85.44
73016;BME280;61893;50.074;14.440;2022-08-20T09:02:38;98286.06;;;17.26;85.04
73016;BME280;61893;50.074;14.440;2022-08-20T09:05:13;98285.84;;;17.28;85.45
73016;BME280;61893;50.074;14.440;2022-08-20T09:07:53;98280.28;;;17.29;85.59
73016;BME280;61893;50.074;14.440;2022-08-20T09:10:22;98299.50;;;17.20;85.38
73016;BME280;61893;50.074;14.440;2022-08-20T09:12:48;98291.81;;;17.17;84.89
73016;BME280;61893;50.074;14.440;2022-08-20T09:15:15;98295.50;;;17.09;84.21
73016;BME280;61893;50.074;14.440;2022-08-20T09:18:23;98291.78;;;17.10;84.74
73016;BME280;61893;50.074;14.440;2022-08-20T09:20:49;98296.94;;;17.05;85.16
73016;BME280;61893;50.074;14.440;2022-08-20T09:23:15;98293.81;;;17.01;85.23
73016;BME280;61893;50.074;14.440;2022-08-20T09:25:40;98295.09;;;17.05;84.68
73016;BME280;61893;50.074;14.440;2022-08-20T09:28:06;98281.91;;;17.17;84.64
73016;BME280;61893;50.074;14.440;2022-08-20T09:30:32;98283.94;;;17.08;84.54
73016;BME280;61893;50.074;14.440;2022-08-20T09:33:21;98285.56;;;17.03;84.98
73016;BME280;61893;50.074;14.440;2022-08-20T09:35:47;98294.97;;;17.27;84.45
73016;BME280;61893;50.074;14.440;2022-08-20T09:38:13;98298.53;;;16.93;85.23
73016;BME280;61893;50.074;14.440;2022-08-20T09:40:39;98297.06;;;16.90;86.04
73016;BME280;61893;50.074;14.440;2022-08-20T09:43:08;98296.25;;;16.96;85.66
73016;BME280;61893;50.074;14.440;2022-08-20T09:45:36;98295.44;;;16.96;86.24
73016;BME280;61893;50.074;14.440;2022-08-20T09:48:10;98301.34;;;16.78;86.72
73016;BME280;61893;50.074;14.440;2022-08-20T09:50:49;98304.47;;;16.81;86.70
73016;BME280;61893;50.074;14.440;2022-08-20T09:53:17;98297.50;;;16.94;86.58
73016;BME280;61893;50.074;14.440;2022-08-20T09:55:45;98297.56;;;17.07;86.26
73016;BME280;61893;50.074;14.440;2022-08-20T10:00:50;98298.19;;;17.09;84.93
73016;BME280;61893;50.074;14.440;2022-08-20T10:05:42;98295.56;;;17.22;84.68
73016;BME280;61893;50.074;14.440;2022-08-20T10:08:09;98293.41;;;17.04;84.48
73016;BME280;61893;50.074;14.440;2022-08-20T10:10:35;98288.28;;;17.16;84.28
73016;BME280;61893;50.074;14.440;2022-08-20T10:13:00;98291.75;;;17.03;84.76
73016;BME280;61893;50.074;14.440;2022-08-20T10:15:27;98283.47;;;16.98;83.78
73016;BME280;61893;50.074;14.440;2022-08-20T10:17:53;98302.03;;;16.93;83.89
73016;BME280;61893;50.074;14.440;2022-08-20T10:20:25;98287.63;;;17.07;84.22
73016;BME280;61893;50.074;14.440;2022-08-20T10:22:51;98288.69;;;17.06;84.34
73016;BME280;61893;50.074;14.440;2022-08-20T10:25:16;98294.63;;;16.95;84.23
73016;BME280;61893;50.074;14.440;2022-08-20T10:27:43;98300.00;;;16.95;84.56
73016;BME280;61893;50.074;14.440;2022-08-20T10:30:10;98300.16;;;16.87;83.57
73016;BME280;61893;50.074;14.440;2022-08-20T10:32:37;98305.75;;;16.85;84.61
73016;BME280;61893;50.074;14.440;2022-08-20T10:35:04;98302.91;;;17.00;84.67
73016;BME280;61893;50.074;14.440;2022-08-20T10:37:33;98314.16;;;16.82;84.58
73016;BME280;61893;50.074;14.440;2022-08-20T10:39:59;98304.16;;;16.98;84.28
73016;BME280;61893;50.074;14.440;2022-08-20T10:42:24;98312.03;;;17.06;85.05
73016;BME280;61893;50.074;14.440;2022-08-20T10:44:50;98316.34;;;17.00;83.96
73016;BME280;61893;50.074;14.440;2022-08-20T10:47:21;98309.69;;;16.89;85.29
73016;BME280;61893;50.074;14.440;2022-08-20T10:49:49;98313.03;;;16.98;84.83
73016;BME280;61893;50.074;14.440;2022-08-20T10:52:19;98316.50;;;16.85;84.73
73016;BME280;61893;50.074;14.440;2022-08-20T10:54:44;98314.69;;;16.99;85.14
73016;BME280;61893;50.074;14.440;2022-08-20T10:57:20;98319.44;;;16.97;84.56
73016;BME280;61893;50.074;14.440;2022-08-20T10:59:50;98319.28;;;17.05;84.48
73016;BME280;61893;50.074;14.440;2022-08-20T11:02:16;98340.56;;;17.00;84.54
73016;BME280;61893;50.074;14.440;2022-08-20T11:04:43;98329.56;;;16.95;84.96
73016;BME280;61893;50.074;14.440;2022-08-20T11:09:37;98330.41;;;17.02;84.49
73016;BME280;61893;50.074;14.440;2022-08-20T11:12:03;98327.69;;;16.96;84.73
73016;BME280;61893;50.074;14.440;2022-08-20T11:14:29;98336.91;;;17.15;83.80
73016;BME280;61893;50.074;14.440;2022-08-20T11:16:58;98332.19;;;17.23;83.81
73016;BME280;61893;50.074;14.440;2022-08-20T11:19:25;98333.16;;;17.16;83.85
73016;BME280;61893;50.074;14.440;2022-08-20T11:21:50;98329.00;;;17.06;84.59
73016;BME280;61893;50.074;14.440;2022-08-20T11:24:16;98332.13;;;17.17;84.40
73016;BME280;61893;50.074;14.440;2022-08-20T11:26:45;98333.94;;;17.03;84.90
73016;BME280;61893;50.074;14.440;2022-08-20T11:29:13;98336.41;;;17.04;86.25
73016;BME280;61893;50.074;14.440;2022-08-20T11:31:39;98339.22;;;16.83;87.41
73016;BME280;61893;50.074;14.440;2022-08-20T11:34:05;98332.09;;;16.75;89.18
73016;BME280;61893;50.074;14.440;2022-08-20T11:36:31;98339.22;;;16.83;88.82
73016;BME280;61893;50.074;14.440;2022-08-20T11:39:03;98346.50;;;16.67;88.67
73016;BME280;61893;50.074;14.440;2022-08-20T11:41:30;98346.09;;;16.71;88.14
73016;BME280;61893;50.074;14.440;2022-08-20T11:43:55;98342.16;;;16.66;89.07
73016;BME280;61893;50.074;14.440;2022-08-20T11:46:21;98346.47;;;16.61;89.12
73016;BME280;61893;50.074;14.440;2022-08-20T11:48:47;98347.72;;;16.65;89.58
73016;BME280;61893;50.074;14.440;2022-08-20T11:51:12;98352.22;;;16.58;88.92
73016;BME280;61893;50.074;14.440;2022-08-20T11:53:38;98355.19;;;16.41;89.04
73016;BME280;61893;50.074;14.440;2022-08-20T11:56:04;98355.81;;;16.43;90.04
73016;BME280;61893;50.074;14.440;2022-08-20T11:58:31;98357.88;;;16.41;90.17
73016;BME280;61893;50.074;14.440;2022-08-20T12:00:58;98355.47;;;16.53;90.60
73016;BME280;61893;50.074;14.440;2022-08-20T12:03:24;98360.97;;;16.45;90.67
73016;BME280;61893;50.074;14.440;2022-08-20T12:05:50;98355.00;;;16.43;89.85
73016;BME280;61893;50.074;14.440;2022-08-20T12:08:16;98360.28;;;16.36;89.72
73016;BME280;61893;50.074;14.440;2022-08-20T12:10:41;98361.50;;;16.34;90.04
73016;BME280;61893;50.074;14.440;2022-08-20T12:13:07;98362.66;;;16.46;89.52
73016;BME280;61893;50.074;14.440;2022-08-20T12:15:35;98373.34;;;16.39;89.70
73016;BME280;61893;50.074;14.440;2022-08-20T12:18:05;98369.69;;;16.47;89.84
73016;BME280;61893;50.074;14.440;2022-08-20T12:20:32;98359.59;;;16.49;89.64
73016;BME280;61893;50.074;14.440;2022-08-20T12:22:58;98363.06;;;16.43;89.72
73016;BME280;61893;50.074;14.440;2022-08-20T12:25:24;98360.91;;;16.32;89.99
73016;BME280;61893;50.074;14.440;2022-08-20T12:27:50;98365.50;;;16.38;89.44
73016;BME280;61893;50.074;14.440;2022-08-20T12:30:20;98365.63;;;16.30;89.43
73016;BME280;61893;50.074;14.440;2022-08-20T12:32:46;98362.47;;;16.48;89.33
73016;BME280;61893;50.074;14.440;2022-08-20T12:35:14;98369.66;;;16.40;89.47
73016;BME280;61893;50.074;14.440;2022-08-20T12:37:41;98368.44;;;16.43;89.14
73016;BME280;61893;50.074;14.440;2022-08-20T12:40:14;98373.16;;;16.41;88.92
73016;BME280;61893;50.074;14.440;2022-08-20T12:42:40;98376.56;;;16.28;90.15
73016;BME280;61893;50.074;14.440;2022-08-20T12:45:06;98368.69;;;16.27;90.24
73016;BME280;61893;50.074;14.440;2022-08-20T12:47:44;98367.53;;;16.36;89.26
73016;BME280;61893;50.074;14.440;2022-08-20T12:50:20;98365.22;;;16.33;90.18
73016;BME280;61893;50.074;14.440;2022-08-20T12:52:52;98360.56;;;16.41;89.44
73016;BME280;61893;50.074;14.440;2022-08-20T12:55:33;98358.66;;;16.35;89.93
73016;BME280;61893;50.074;14.440;2022-08-20T12:58:03;98354.75;;;16.38;89.68
73016;BME280;61893;50.074;14.440;2022-08-20T13:00:35;98353.84;;;16.31;90.34
73016;BME280;61893;50.074;14.440;2022-08-20T13:03:05;98368.91;;;16.53;89.91
73016;BME280;61893;50.074;14.440;2022-08-20T13:05:52;98364.13;;;16.49;89.87
73016;BME280;61893;50.074;14.440;2022-08-20T13:08:24;98365.84;;;16.56;89.08
73016;BME280;61893;50.074;14.440;2022-08-20T13:11:02;98365.41;;;16.53;89.87
73016;BME280;61893;50.074;14.440;2022-08-20T13:13:33;98375.56;;;16.57;89.95
73016;BME280;61893;50.074;14.440;2022-08-20T13:15:58;98371.97;;;16.50;89.89
73016;BME280;61893;50.074;14.440;2022-08-20T13:18:24;98375.75;;;16.56;88.92
73016;BME280;61893;50.074;14.440;2022-08-20T13:20:50;98363.34;;;16.55;89.84
73016;BME280;61893;50.074;14.440;2022-08-20T13:23:25;98375.22;;;16.67;89.58
73016;BME280;61893;50.074;14.440;2022-08-20T13:26:20;98369.28;;;16.72;89.65